sensor_id;sensor_type;location;lat;lon;timestamp;temperature;humidity
5978;DHT22;3015;51.390;12.256;2022-09-16T00:01:11;11.70;99.90
5978;DHT22;3015;51.390;12.256;2022-09-16T00:03:37;11.70;99.90
5978;DHT22;3015;51.390;12.256;2022-09-16T00:06:03;11.70;99.90
5978;DHT22;3015;51.390;12.256;2022-09-16T00:08:29;11.70;99.90
5978;DHT22;3015;51.390;12.256;2022-09-16T00:11:00;11.70;95.50
5978;DHT22;3015;51.390;12.256;2022-09-16T00:13:26;11.60;99.90
5978;DHT22;3015;51.390;12.256;2022-09-16T00:15:52;11.60;99.90
5978;DHT22;3015;51.390;12.256;2022-09-16T00:18:18;11.60;49.90
5978;DHT22;3015;51.390;12.256;2022-09-16T00:20:49;11.60;88.30
5978;DHT22;3015;51.390;12.256;2022-09-16T00:23:15;11.60;1.00
5978;DHT22;3015;51.390;12.256;2022-09-16T00:25:41;11.60;16.00
5978;DHT22;3015;51.390;12.256;2022-09-16T00:28:07;11.60;1.00
5978;DHT22;3015;51.390;12.256;2022-09-16T00:30:33;11.50;52.90
5978;DHT22;3015;51.390;12.256;2022-09-16T00:32:58;11.50;16.10
5978;DHT22;3015;51.390;12.256;2022-09-16T00:35:24;11.50;13.50
5978;DHT22;3015;51.390;12.256;2022-09-16T00:37:49;11.40;32.40
5978;DHT22;3015;51.390;12.256;2022-09-16T00:40:15;11.40;1.00
5978;DHT22;3015;51.390;12.256;2022-09-16T00:42:41;11.40;95.10
5978;DHT22;3015;51.390;12.256;2022-09-16T00:45:21;11.40;38.70
5978;DHT22;3015;51.390;12.256;2022-09-16T00:47:57;11.30;5.00
5978;DHT22;3015;51.390;12.256;2022-09-16T00:50:51;11.30;1.00
5978;DHT22;3015;51.390;12.256;2022-09-16T00:53:26;11.30;56.60
5978;DHT22;3015;51.390;12.256;2022-09-16T00:55:53;11.30;59.40
5978;DHT22;3015;51.390;12.256;2022-09-16T00:58:43;11.20;59.10
5978;DHT22;3015;51.390;12.256;2022-09-16T01:01:10;11.20;48.10
5978;DHT22;3015;51.390;12.256;2022-09-16T01:03:56;11.20;99.90
5978;DHT22;3015;51.390;12.256;2022-09-16T01:06:24;11.10;99.90
5978;DHT22;3015;51.390;12.256;2022-09-16T01:08:51;11.10;99.90
5978;DHT22;3015;51.390;12.256;2022-09-16T01:11:16;11.10;99.90
5978;DHT22;3015;51.390;12.256;2022-09-16T01:13:43;11.20;99.90
5978;DHT22;3015;51.390;12.256;2022-09-16T01:16:17;11.20;99.90
5978;DHT22;3015;51.390;12.256;2022-09-16T01:21:42;11.20;99.90
5978;DHT22;3015;51.390;12.256;2022-09-16T01:39:26;11.10;99.90
5978;DHT22;3015;51.390;12.256;2022-09-16T01:44:49;11.00;99.90
5978;DHT22;3015;51.390;12.256;2022-09-16T01:49:57;11.00;99.90
5978;DHT22;3015;51.390;12.256;2022-09-16T01:52:36;11.10;99.90
5978;DHT22;3015;51.390;12.256;2022-09-16T01:55:07;11.00;99.90
5978;DHT22;3015;51.390;12.256;2022-09-16T01:57:48;11.00;99.90
5978;DHT22;3015;51.390;12.256;2022-09-16T02:00:16;10.90;99.90
5978;DHT22;3015;51.390;12.256;2022-09-16T02:05:45;10.90;24.30
5978;DHT22;3015;51.390;12.256;2022-09-16T02:08:30;10.80;1.00
5978;DHT22;3015;51.390;12.256;2022-09-16T02:10:59;10.80;1.00
5978;DHT22;3015;51.390;12.256;2022-09-16T02:13:29;10.70;1.00
5978;DHT22;3015;51.390;12.256;2022-09-16T02:16:01;10.60;76.60
5978;DHT22;3015;51.390;12.256;2022-09-16T02:18:32;10.60;99.90
5978;DHT22;3015;51.390;12.256;2022-09-16T02:21:00;10.60;99.90
5978;DHT22;3015;51.390;12.256;2022-09-16T02:23:30;10.60;99.90
5978;DHT22;3015;51.390;12.256;2022-09-16T02:25:58;10.50;99.90
5978;DHT22;3015;51.390;12.256;2022-09-16T02:28:29;10.60;99.90
5978;DHT22;3015;51.390;12.256;2022-09-16T02:30:59;10.50;99.90
5978;DHT22;3015;51.390;12.256;2022-09-16T02:33:31;10.50;99.40
5978;DHT22;3015;51.390;12.256;2022-09-16T02:35:58;10.60;96.40
5978;DHT22;3015;51.390;12.256;2022-09-16T02:38:31;10.60;75.80
5978;DHT22;3015;51.390;12.256;2022-09-16T02:40:59;10.50;20.90
5978;DHT22;3015;51.390;12.256;2022-09-16T02:43:26;10.40;13.00
5978;DHT22;3015;51.390;12.256;2022-09-16T02:46:16;10.40;77.90
5978;DHT22;3015;51.390;12.256;2022-09-16T02:56:42;10.30;99.90
5978;DHT22;3015;51.390;12.256;2022-09-16T02:59:10;10.30;99.90
5978;DHT22;3015;51.390;12.256;2022-09-16T03:01:43;10.30;85.50
5978;DHT22;3015;51.390;12.256;2022-09-16T03:04:11;10.30;99.90
5978;DHT22;3015;51.390;12.256;2022-09-16T03:06:37;10.20;99.90
5978;DHT22;3015;51.390;12.256;2022-09-16T03:09:06;10.20;99.90
5978;DHT22;3015;51.390;12.256;2022-09-16T03:25:17;10.10;95.90
5978;DHT22;3015;51.390;12.256;2022-09-16T03:27:50;10.10;97.10
5978;DHT22;3015;51.390;12.256;2022-09-16T03:30:16;10.00;87.40
5978;DHT22;3015;51.390;12.256;2022-09-16T03:32:48;10.00;99.90
5978;DHT22;3015;51.390;12.256;2022-09-16T03:35:32;9.90;99.90
5978;DHT22;3015;51.390;12.256;2022-09-16T03:38:01;9.90;99.90
5978;DHT22;3015;51.390;12.256;2022-09-16T03:40:28;10.00;99.90
5978;DHT22;3015;51.390;12.256;2022-09-16T03:42:57;9.90;91.00
5978;DHT22;3015;51.390;12.256;2022-09-16T03:45:23;9.90;99.90
5978;DHT22;3015;51.390;12.256;2022-09-16T03:47:50;9.80;99.90
5978;DHT22;3015;51.390;12.256;2022-09-16T03:50:17;9.90;99.90
5978;DHT22;3015;51.390;12.256;2022-09-16T03:52:43;9.90;99.90
5978;DHT22;3015;51.390;12.256;2022-09-16T03:55:09;9.90;99.90
5978;DHT22;3015;51.390;12.256;2022-09-16T03:57:38;9.90;99.90
5978;DHT22;3015;51.390;12.256;2022-09-16T04:00:05;9.80;99.90
5978;DHT22;3015;51.390;12.256;2022-09-16T04:02:32;9.80;99.90
5978;DHT22;3015;51.390;12.256;2022-09-16T04:04:57;9.80;99.90
5978;DHT22;3015;51.390;12.256;2022-09-16T04:07:23;9.70;99.90
5978;DHT22;3015;51.390;12.256;2022-09-16T04:09:49;9.70;99.90
5978;DHT22;3015;51.390;12.256;2022-09-16T04:12:14;9.60;99.90
5978;DHT22;3015;51.390;12.256;2022-09-16T04:14:40;9.60;99.90
5978;DHT22;3015;51.390;12.256;2022-09-16T04:17:06;9.50;99.90
5978;DHT22;3015;51.390;12.256;2022-09-16T04:19:31;9.50;99.90
5978;DHT22;3015;51.390;12.256;2022-09-16T04:21:57;9.50;99.90
5978;DHT22;3015;51.390;12.256;2022-09-16T04:24:23;9.50;93.30
5978;DHT22;3015;51.390;12.256;2022-09-16T04:26:48;9.40;51.30
5978;DHT22;3015;51.390;12.256;2022-09-16T04:29:14;9.40;74.50
5978;DHT22;3015;51.390;12.256;2022-09-16T04:31:41;9.30;66.70
5978;DHT22;3015;51.390;12.256;2022-09-16T04:34:08;9.30;24.90
5978;DHT22;3015;51.390;12.256;2022-09-16T04:36:36;9.30;50.10
5978;DHT22;3015;51.390;12.256;2022-09-16T04:39:02;9.30;75.60
5978;DHT22;3015;51.390;12.256;2022-09-16T04:41:28;9.30;64.60
5978;DHT22;3015;51.390;12.256;2022-09-16T04:43:58;9.30;75.60
5978;DHT22;3015;51.390;12.256;2022-09-16T04:46:28;9.40;97.20
5978;DHT22;3015;51.390;12.256;2022-09-16T04:48:54;9.40;97.30
5978;DHT22;3015;51.390;12.256;2022-09-16T04:51:21;9.40;97.30
5978;DHT22;3015;51.390;12.256;2022-09-16T04:53:47;9.50;98.00
5978;DHT22;3015;51.390;12.256;2022-09-16T04:56:17;9.50;96.80
5978;DHT22;3015;51.390;12.256;2022-09-16T04:58:48;9.50;73.40
5978;DHT22;3015;51.390;12.256;2022-09-16T05:01:23;9.50;83.40
5978;DHT22;3015;51.390;12.256;2022-09-16T05:03:51;9.40;81.20
5978;DHT22;3015;51.390;12.256;2022-09-16T05:06:25;9.50;97.10
5978;DHT22;3015;51.390;12.256;2022-09-16T05:08:52;9.50;99.90
5978;DHT22;3015;51.390;12.256;2022-09-16T05:11:23;9.70;99.90
5978;DHT22;3015;51.390;12.256;2022-09-16T05:13:49;9.60;83.70
5978;DHT22;3015;51.390;12.256;2022-09-16T05:16:18;9.60;52.40
5978;DHT22;3015;51.390;12.256;2022-09-16T05:18:45;9.70;94.50
5978;DHT22;3015;51.390;12.256;2022-09-16T05:21:13;9.70;99.90
5978;DHT22;3015;51.390;12.256;2022-09-16T05:23:39;9.90;99.90
5978;DHT22;3015;51.390;12.256;2022-09-16T05:26:13;9.90;97.50
5978;DHT22;3015;51.390;12.256;2022-09-16T05:28:39;10.00;24.00
5978;DHT22;3015;51.390;12.256;2022-09-16T05:31:18;10.10;1.00
5978;DHT22;3015;51.390;12.256;2022-09-16T05:33:46;10.10;1.00
5978;DHT22;3015;51.390;12.256;2022-09-16T05:36:16;10.20;1.00
5978;DHT22;3015;51.390;12.256;2022-09-16T05:38:42;10.20;1.00
5978;DHT22;3015;51.390;12.256;2022-09-16T05:41:08;10.20;1.00
5978;DHT22;3015;51.390;12.256;2022-09-16T05:43:35;10.20;1.00
5978;DHT22;3015;51.390;12.256;2022-09-16T05:46:01;10.30;1.00
5978;DHT22;3015;51.390;12.256;2022-09-16T05:48:27;10.50;1.00
5978;DHT22;3015;51.390;12.256;2022-09-16T05:50:58;10.60;1.00
5978;DHT22;3015;51.390;12.256;2022-09-16T05:53:25;10.60;1.00
5978;DHT22;3015;51.390;12.256;2022-09-16T05:56:45;10.80;1.00
5978;DHT22;3015;51.390;12.256;2022-09-16T05:58:52;11.00;1.00
5978;DHT22;3015;51.390;12.256;2022-09-16T06:01:24;11.20;1.00
5978;DHT22;3015;51.390;12.256;2022-09-16T06:03:51;11.30;2.30
5978;DHT22;3015;51.390;12.256;2022-09-16T06:06:27;11.40;99.90
5978;DHT22;3015;51.390;12.256;2022-09-16T06:08:55;11.40;1.00
5978;DHT22;3015;51.390;12.256;2022-09-16T06:11:22;11.40;1.00
5978;DHT22;3015;51.390;12.256;2022-09-16T06:13:52;11.40;99.90
5978;DHT22;3015;51.390;12.256;2022-09-16T06:16:20;11.30;1.00
5978;DHT22;3015;51.390;12.256;2022-09-16T06:18:46;11.30;1.00
5978;DHT22;3015;51.390;12.256;2022-09-16T06:21:11;11.30;99.90
5978;DHT22;3015;51.390;12.256;2022-09-16T06:23:38;11.30;1.00
5978;DHT22;3015;51.390;12.256;2022-09-16T06:26:10;11.40;99.90
5978;DHT22;3015;51.390;12.256;2022-09-16T06:28:37;11.50;1.00
5978;DHT22;3015;51.390;12.256;2022-09-16T06:31:05;11.80;1.00
5978;DHT22;3015;51.390;12.256;2022-09-16T06:33:31;11.90;1.00
5978;DHT22;3015;51.390;12.256;2022-09-16T06:36:01;12.00;1.00
5978;DHT22;3015;51.390;12.256;2022-09-16T06:38:26;12.10;1.00
5978;DHT22;3015;51.390;12.256;2022-09-16T06:40:52;12.70;1.00
5978;DHT22;3015;51.390;12.256;2022-09-16T06:43:17;13.30;99.90
5978;DHT22;3015;51.390;12.256;2022-09-16T06:45:43;13.40;99.90
5978;DHT22;3015;51.390;12.256;2022-09-16T06:48:09;13.50;82.90
5978;DHT22;3015;51.390;12.256;2022-09-16T06:50:34;13.40;47.30
5978;DHT22;3015;51.390;12.256;2022-09-16T06:53:00;13.30;99.90
5978;DHT22;3015;51.390;12.256;2022-09-16T06:55:26;13.40;99.90
5978;DHT22;3015;51.390;12.256;2022-09-16T06:57:51;13.40;99.90
5978;DHT22;3015;51.390;12.256;2022-09-16T07:00:17;13.50;59.40
5978;DHT22;3015;51.390;12.256;2022-09-16T07:02:43;13.50;1.00
5978;DHT22;3015;51.390;12.256;2022-09-16T07:05:08;13.50;1.00
5978;DHT22;3015;51.390;12.256;2022-09-16T07:07:34;13.50;1.00
5978;DHT22;3015;51.390;12.256;2022-09-16T07:10:01;13.60;1.00
5978;DHT22;3015;51.390;12.256;2022-09-16T07:12:27;13.80;1.00
5978;DHT22;3015;51.390;12.256;2022-09-16T07:14:53;14.00;99.90
5978;DHT22;3015;51.390;12.256;2022-09-16T07:17:18;14.40;99.90
5978;DHT22;3015;51.390;12.256;2022-09-16T07:19:47;14.80;1.00
5978;DHT22;3015;51.390;12.256;2022-09-16T07:22:13;15.10;1.00
5978;DHT22;3015;51.390;12.256;2022-09-16T07:24:39;15.50;1.00
5978;DHT22;3015;51.390;12.256;2022-09-16T07:27:04;16.50;1.00
5978;DHT22;3015;51.390;12.256;2022-09-16T07:29:31;17.10;99.90
5978;DHT22;3015;51.390;12.256;2022-09-16T07:31:56;16.90;99.90
5978;DHT22;3015;51.390;12.256;2022-09-16T07:34:22;16.50;99.90
5978;DHT22;3015;51.390;12.256;2022-09-16T07:36:48;16.50;99.90
5978;DHT22;3015;51.390;12.256;2022-09-16T07:39:16;16.30;99.90
5978;DHT22;3015;51.390;12.256;2022-09-16T07:41:43;16.20;99.90
5978;DHT22;3015;51.390;12.256;2022-09-16T07:44:11;16.00;99.90
5978;DHT22;3015;51.390;12.256;2022-09-16T07:46:37;15.90;99.90
5978;DHT22;3015;51.390;12.256;2022-09-16T07:49:05;15.70;99.90
5978;DHT22;3015;51.390;12.256;2022-09-16T07:51:31;15.50;99.90
5978;DHT22;3015;51.390;12.256;2022-09-16T07:54:05;15.40;99.90
5978;DHT22;3015;51.390;12.256;2022-09-16T07:56:33;15.20;99.90
5978;DHT22;3015;51.390;12.256;2022-09-16T07:58:59;15.10;99.90
5978;DHT22;3015;51.390;12.256;2022-09-16T08:01:25;15.10;99.90
5978;DHT22;3015;51.390;12.256;2022-09-16T08:03:52;15.10;99.90
5978;DHT22;3015;51.390;12.256;2022-09-16T08:06:19;15.10;99.90
5978;DHT22;3015;51.390;12.256;2022-09-16T08:08:46;15.10;99.90
5978;DHT22;3015;51.390;12.256;2022-09-16T08:11:13;15.30;99.90
5978;DHT22;3015;51.390;12.256;2022-09-16T08:13:40;15.60;99.90
5978;DHT22;3015;51.390;12.256;2022-09-16T08:16:17;16.70;99.90
5978;DHT22;3015;51.390;12.256;2022-09-16T08:18:44;17.40;99.90
5978;DHT22;3015;51.390;12.256;2022-09-16T08:21:15;17.70;99.90
5978;DHT22;3015;51.390;12.256;2022-09-16T08:23:42;17.40;99.90
5978;DHT22;3015;51.390;12.256;2022-09-16T08:26:09;17.80;99.90
5978;DHT22;3015;51.390;12.256;2022-09-16T08:28:36;17.80;99.90
5978;DHT22;3015;51.390;12.256;2022-09-16T08:31:03;17.50;99.90
5978;DHT22;3015;51.390;12.256;2022-09-16T08:33:29;17.20;99.90
5978;DHT22;3015;51.390;12.256;2022-09-16T08:36:15;17.00;99.90
5978;DHT22;3015;51.390;12.256;2022-09-16T08:38:43;16.50;99.90
5978;DHT22;3015;51.390;12.256;2022-09-16T08:43:49;16.10;99.90
5978;DHT22;3015;51.390;12.256;2022-09-16T08:46:24;16.00;99.90
5978;DHT22;3015;51.390;12.256;2022-09-16T08:49:00;16.40;99.90
5978;DHT22;3015;51.390;12.256;2022-09-16T08:51:28;16.80;99.90
5978;DHT22;3015;51.390;12.256;2022-09-16T08:54:08;18.60;99.90
5978;DHT22;3015;51.390;12.256;2022-09-16T08:56:36;19.10;99.90
5978;DHT22;3015;51.390;12.256;2022-09-16T08:59:06;18.70;99.90
5978;DHT22;3015;51.390;12.256;2022-09-16T09:01:43;18.20;99.90
5978;DHT22;3015;51.390;12.256;2022-09-16T09:04:12;17.90;99.90
5978;DHT22;3015;51.390;12.256;2022-09-16T09:14:28;17.50;99.90
5978;DHT22;3015;51.390;12.256;2022-09-16T09:17:29;17.20;99.90
5978;DHT22;3015;51.390;12.256;2022-09-16T09:28:10;16.20;99.90
5978;DHT22;3015;51.390;12.256;2022-09-16T09:30:39;17.80;99.90
5978;DHT22;3015;51.390;12.256;2022-09-16T09:43:51;17.80;99.90
5978;DHT22;3015;51.390;12.256;2022-09-16T09:46:34;17.70;99.90
5978;DHT22;3015;51.390;12.256;2022-09-16T09:49:04;18.70;99.90
5978;DHT22;3015;51.390;12.256;2022-09-16T09:51:36;20.80;99.90
5978;DHT22;3015;51.390;12.256;2022-09-16T09:54:30;23.10;99.90
5978;DHT22;3015;51.390;12.256;2022-09-16T09:57:10;23.80;99.90
5978;DHT22;3015;51.390;12.256;2022-09-16T09:59:59;23.90;99.90
5978;DHT22;3015;51.390;12.256;2022-09-16T10:02:26;24.30;99.90
5978;DHT22;3015;51.390;12.256;2022-09-16T10:04:52;25.00;99.90
5978;DHT22;3015;51.390;12.256;2022-09-16T10:07:22;25.90;99.90
5978;DHT22;3015;51.390;12.256;2022-09-16T10:10:15;26.40;99.90
5978;DHT22;3015;51.390;12.256;2022-09-16T10:12:41;26.30;99.90
5978;DHT22;3015;51.390;12.256;2022-09-16T10:15:29;24.50;99.90
5978;DHT22;3015;51.390;12.256;2022-09-16T10:17:58;23.50;99.90
5978;DHT22;3015;51.390;12.256;2022-09-16T10:20:31;24.80;99.90
5978;DHT22;3015;51.390;12.256;2022-09-16T10:23:10;25.30;99.90
5978;DHT22;3015;51.390;12.256;2022-09-16T10:25:36;24.90;99.90
5978;DHT22;3015;51.390;12.256;2022-09-16T10:28:05;24.90;99.90
5978;DHT22;3015;51.390;12.256;2022-09-16T10:30:42;24.80;99.90
5978;DHT22;3015;51.390;12.256;2022-09-16T10:33:40;25.00;99.90
5978;DHT22;3015;51.390;12.256;2022-09-16T10:36:06;26.00;99.90
5978;DHT22;3015;51.390;12.256;2022-09-16T10:38:36;26.70;99.90
5978;DHT22;3015;51.390;12.256;2022-09-16T10:41:08;26.40;99.90
5978;DHT22;3015;51.390;12.256;2022-09-16T10:43:47;25.90;99.90
5978;DHT22;3015;51.390;12.256;2022-09-16T10:46:15;26.70;99.90
5978;DHT22;3015;51.390;12.256;2022-09-16T10:48:41;27.00;99.90
5978;DHT22;3015;51.390;12.256;2022-09-16T10:51:26;27.30;99.90
5978;DHT22;3015;51.390;12.256;2022-09-16T10:54:03;27.50;99.90
5978;DHT22;3015;51.390;12.256;2022-09-16T10:56:47;27.00;99.90
5978;DHT22;3015;51.390;12.256;2022-09-16T10:59:13;26.40;99.90
5978;DHT22;3015;51.390;12.256;2022-09-16T11:07:29;25.00;99.90
5978;DHT22;3015;51.390;12.256;2022-09-16T11:21:30;21.60;99.90
5978;DHT22;3015;51.390;12.256;2022-09-16T11:24:16;23.50;99.90
5978;DHT22;3015;51.390;12.256;2022-09-16T11:30:09;25.30;99.90
5978;DHT22;3015;51.390;12.256;2022-09-16T11:38:58;22.90;99.90
5978;DHT22;3015;51.390;12.256;2022-09-16T11:59:08;21.60;99.90
5978;DHT22;3015;51.390;12.256;2022-09-16T12:01:42;20.80;99.90
5978;DHT22;3015;51.390;12.256;2022-09-16T12:04:25;19.90;99.90
5978;DHT22;3015;51.390;12.256;2022-09-16T12:09:47;18.60;99.90
5978;DHT22;3015;51.390;12.256;2022-09-16T12:12:24;18.10;99.90
5978;DHT22;3015;51.390;12.256;2022-09-16T12:18:06;19.50;99.90
5978;DHT22;3015;51.390;12.256;2022-09-16T12:20:37;21.10;99.90
5978;DHT22;3015;51.390;12.256;2022-09-16T12:23:14;22.00;99.90
5978;DHT22;3015;51.390;12.256;2022-09-16T12:28:47;23.40;99.90
5978;DHT22;3015;51.390;12.256;2022-09-16T12:32:07;24.00;99.90
5978;DHT22;3015;51.390;12.256;2022-09-16T12:34:47;24.40;99.90
5978;DHT22;3015;51.390;12.256;2022-09-16T12:37:36;24.80;99.90
5978;DHT22;3015;51.390;12.256;2022-09-16T12:40:05;24.70;99.90
5978;DHT22;3015;51.390;12.256;2022-09-16T12:53:54;24.50;99.90
5978;DHT22;3015;51.390;12.256;2022-09-16T13:01:49;24.30;99.90
5978;DHT22;3015;51.390;12.256;2022-09-16T13:04:22;24.30;99.90
5978;DHT22;3015;51.390;12.256;2022-09-16T13:06:51;24.20;99.90
5978;DHT22;3015;51.390;12.256;2022-09-16T13:09:21;24.70;99.90
5978;DHT22;3015;51.390;12.256;2022-09-16T13:12:02;24.10;99.90
5978;DHT22;3015;51.390;12.256;2022-09-16T13:14:56;24.00;99.90
5978;DHT22;3015;51.390;12.256;2022-09-16T13:17:33;24.60;99.90
5978;DHT22;3015;51.390;12.256;2022-09-16T13:20:30;25.00;99.90
5978;DHT22;3015;51.390;12.256;2022-09-16T13:25:42;24.90;99.90
5978;DHT22;3015;51.390;12.256;2022-09-16T13:28:23;25.40;99.90
5978;DHT22;3015;51.390;12.256;2022-09-16T13:30:50;24.40;99.90
5978;DHT22;3015;51.390;12.256;2022-09-16T13:35:44;24.00;99.90
5978;DHT22;3015;51.390;12.256;2022-09-16T13:40:40;23.40;99.90
5978;DHT22;3015;51.390;12.256;2022-09-16T13:43:31;23.60;99.90
5978;DHT22;3015;51.390;12.256;2022-09-16T13:46:11;23.80;99.90
5978;DHT22;3015;51.390;12.256;2022-09-16T13:51:28;24.50;99.90
5978;DHT22;3015;51.390;12.256;2022-09-16T13:53:54;24.00;99.90
5978;DHT22;3015;51.390;12.256;2022-09-16T13:59:43;22.10;99.90
5978;DHT22;3015;51.390;12.256;2022-09-16T14:02:14;21.40;99.90
5978;DHT22;3015;51.390;12.256;2022-09-16T14:05:10;21.20;99.90
5978;DHT22;3015;51.390;12.256;2022-09-16T14:13:16;21.80;99.90
5978;DHT22;3015;51.390;12.256;2022-09-16T14:15:51;22.40;99.90
5978;DHT22;3015;51.390;12.256;2022-09-16T14:18:24;22.20;99.90
5978;DHT22;3015;51.390;12.256;2022-09-16T14:21:03;22.20;99.90
5978;DHT22;3015;51.390;12.256;2022-09-16T14:23:30;22.20;99.90
5978;DHT22;3015;51.390;12.256;2022-09-16T14:26:08;22.20;99.90
5978;DHT22;3015;51.390;12.256;2022-09-16T14:28:34;22.20;99.90
5978;DHT22;3015;51.390;12.256;2022-09-16T14:31:00;21.60;99.90
5978;DHT22;3015;51.390;12.256;2022-09-16T14:33:31;21.10;99.90
5978;DHT22;3015;51.390;12.256;2022-09-16T14:35:59;21.00;99.90
5978;DHT22;3015;51.390;12.256;2022-09-16T14:39:01;21.10;99.90
5978;DHT22;3015;51.390;12.256;2022-09-16T14:46:52;22.30;99.90
5978;DHT22;3015;51.390;12.256;2022-09-16T14:49:18;21.90;99.90
5978;DHT22;3015;51.390;12.256;2022-09-16T14:51:53;21.90;99.90
5978;DHT22;3015;51.390;12.256;2022-09-16T14:54:21;22.00;99.90
5978;DHT22;3015;51.390;12.256;2022-09-16T14:57:01;21.40;99.90
5978;DHT22;3015;51.390;12.256;2022-09-16T14:59:32;21.10;99.90
5978;DHT22;3015;51.390;12.256;2022-09-16T15:02:06;20.50;99.90
5978;DHT22;3015;51.390;12.256;2022-09-16T15:04:35;20.10;99.90
5978;DHT22;3015;51.390;12.256;2022-09-16T15:07:09;19.80;99.90
5978;DHT22;3015;51.390;12.256;2022-09-16T15:09:47;19.50;99.90
5978;DHT22;3015;51.390;12.256;2022-09-16T15:12:20;19.00;99.90
5978;DHT22;3015;51.390;12.256;2022-09-16T15:14:47;18.80;99.90
5978;DHT22;3015;51.390;12.256;2022-09-16T15:17:17;18.60;99.90
5978;DHT22;3015;51.390;12.256;2022-09-16T15:19:54;18.40;99.90
5978;DHT22;3015;51.390;12.256;2022-09-16T15:22:21;18.40;99.90
5978;DHT22;3015;51.390;12.256;2022-09-16T15:24:51;18.40;99.90
5978;DHT22;3015;51.390;12.256;2022-09-16T15:27:23;18.40;99.90
5978;DHT22;3015;51.390;12.256;2022-09-16T15:29:54;18.30;99.90
5978;DHT22;3015;51.390;12.256;2022-09-16T15:32:22;18.20;99.90
5978;DHT22;3015;51.390;12.256;2022-09-16T15:37:40;18.00;99.90
5978;DHT22;3015;51.390;12.256;2022-09-16T15:40:18;17.90;99.90
5978;DHT22;3015;51.390;12.256;2022-09-16T15:42:48;17.80;99.90
5978;DHT22;3015;51.390;12.256;2022-09-16T15:45:26;17.60;99.90
5978;DHT22;3015;51.390;12.256;2022-09-16T15:48:28;17.50;99.90
5978;DHT22;3015;51.390;12.256;2022-09-16T15:50:54;17.40;99.90
5978;DHT22;3015;51.390;12.256;2022-09-16T15:53:40;17.30;99.90
5978;DHT22;3015;51.390;12.256;2022-09-16T15:56:39;17.20;99.90
5978;DHT22;3015;51.390;12.256;2022-09-16T15:59:42;17.20;99.90
5978;DHT22;3015;51.390;12.256;2022-09-16T16:02:32;17.10;99.90
5978;DHT22;3015;51.390;12.256;2022-09-16T16:05:29;17.00;99.90
5978;DHT22;3015;51.390;12.256;2022-09-16T16:07:56;17.00;99.90
5978;DHT22;3015;51.390;12.256;2022-09-16T16:10:28;16.90;99.90
5978;DHT22;3015;51.390;12.256;2022-09-16T16:12:55;16.90;99.90
5978;DHT22;3015;51.390;12.256;2022-09-16T16:15:36;16.90;99.90
5978;DHT22;3015;51.390;12.256;2022-09-16T16:18:05;16.80;99.90
5978;DHT22;3015;51.390;12.256;2022-09-16T16:20:32;16.80;99.90
5978;DHT22;3015;51.390;12.256;2022-09-16T16:22:59;16.70;99.90
5978;DHT22;3015;51.390;12.256;2022-09-16T16:25:26;16.60;99.90
5978;DHT22;3015;51.390;12.256;2022-09-16T16:27:51;16.50;99.90
5978;DHT22;3015;51.390;12.256;2022-09-16T16:30:17;16.40;99.90
5978;DHT22;3015;51.390;12.256;2022-09-16T16:32:45;16.40;99.90
5978;DHT22;3015;51.390;12.256;2022-09-16T16:35:11;16.30;99.90
5978;DHT22;3015;51.390;12.256;2022-09-16T16:37:38;16.30;99.90
5978;DHT22;3015;51.390;12.256;2022-09-16T16:40:04;16.30;99.90
5978;DHT22;3015;51.390;12.256;2022-09-16T16:42:30;16.20;99.90
5978;DHT22;3015;51.390;12.256;2022-09-16T16:44:56;16.10;99.90
5978;DHT22;3015;51.390;12.256;2022-09-16T16:47:22;16.20;99.90
5978;DHT22;3015;51.390;12.256;2022-09-16T16:49:48;16.10;99.90
5978;DHT22;3015;51.390;12.256;2022-09-16T16:52:15;16.10;99.90
5978;DHT22;3015;51.390;12.256;2022-09-16T16:54:40;16.00;99.90
5978;DHT22;3015;51.390;12.256;2022-09-16T16:57:08;16.00;99.90
5978;DHT22;3015;51.390;12.256;2022-09-16T16:59:34;16.00;99.90
5978;DHT22;3015;51.390;12.256;2022-09-16T17:02:00;16.00;99.90
5978;DHT22;3015;51.390;12.256;2022-09-16T17:04:28;16.00;99.90
5978;DHT22;3015;51.390;12.256;2022-09-16T17:06:53;15.90;99.90
5978;DHT22;3015;51.390;12.256;2022-09-16T17:09:19;16.00;99.90
5978;DHT22;3015;51.390;12.256;2022-09-16T17:14:15;16.00;99.90
5978;DHT22;3015;51.390;12.256;2022-09-16T17:16:41;16.00;99.90
5978;DHT22;3015;51.390;12.256;2022-09-16T17:19:06;15.90;99.90
5978;DHT22;3015;51.390;12.256;2022-09-16T17:21:35;15.90;99.90
5978;DHT22;3015;51.390;12.256;2022-09-16T17:24:01;15.80;99.90
5978;DHT22;3015;51.390;12.256;2022-09-16T17:26:27;15.70;99.90
5978;DHT22;3015;51.390;12.256;2022-09-16T17:28:54;15.60;99.90
5978;DHT22;3015;51.390;12.256;2022-09-16T17:31:27;15.60;99.90
5978;DHT22;3015;51.390;12.256;2022-09-16T17:33:59;15.60;99.90
5978;DHT22;3015;51.390;12.256;2022-09-16T17:36:28;15.40;99.90
5978;DHT22;3015;51.390;12.256;2022-09-16T17:39:02;15.20;99.90
5978;DHT22;3015;51.390;12.256;2022-09-16T17:41:29;15.00;99.90
5978;DHT22;3015;51.390;12.256;2022-09-16T17:43:56;14.90;99.90
5978;DHT22;3015;51.390;12.256;2022-09-16T17:46:23;14.80;99.90
5978;DHT22;3015;51.390;12.256;2022-09-16T17:48:52;14.70;99.90
5978;DHT22;3015;51.390;12.256;2022-09-16T17:51:18;14.60;99.90
5978;DHT22;3015;51.390;12.256;2022-09-16T17:53:45;14.50;99.90
5978;DHT22;3015;51.390;12.256;2022-09-16T17:56:14;14.40;99.90
5978;DHT22;3015;51.390;12.256;2022-09-16T17:58:42;14.20;99.90
5978;DHT22;3015;51.390;12.256;2022-09-16T18:01:10;14.00;99.90
5978;DHT22;3015;51.390;12.256;2022-09-16T18:03:37;14.10;99.90
5978;DHT22;3015;51.390;12.256;2022-09-16T18:06:11;13.90;99.90
5978;DHT22;3015;51.390;12.256;2022-09-16T18:08:39;13.80;99.90
5978;DHT22;3015;51.390;12.256;2022-09-16T18:11:05;13.80;99.90
5978;DHT22;3015;51.390;12.256;2022-09-16T18:13:32;13.70;99.90
5978;DHT22;3015;51.390;12.256;2022-09-16T18:16:06;13.70;99.90
5978;DHT22;3015;51.390;12.256;2022-09-16T18:18:34;13.70;99.90
5978;DHT22;3015;51.390;12.256;2022-09-16T18:21:01;13.50;99.90
5978;DHT22;3015;51.390;12.256;2022-09-16T18:23:27;13.40;99.90
5978;DHT22;3015;51.390;12.256;2022-09-16T18:47:51;13.40;99.90
5978;DHT22;3015;51.390;12.256;2022-09-16T18:50:17;12.90;99.90
5978;DHT22;3015;51.390;12.256;2022-09-16T18:52:45;12.90;99.90
5978;DHT22;3015;51.390;12.256;2022-09-16T18:55:11;12.80;99.90
5978;DHT22;3015;51.390;12.256;2022-09-16T18:57:37;12.80;99.90
5978;DHT22;3015;51.390;12.256;2022-09-16T19:00:03;12.80;99.90
5978;DHT22;3015;51.390;12.256;2022-09-16T19:02:29;12.80;99.90
5978;DHT22;3015;51.390;12.256;2022-09-16T19:04:55;12.80;99.90
5978;DHT22;3015;51.390;12.256;2022-09-16T19:07:20;12.90;99.90
5978;DHT22;3015;51.390;12.256;2022-09-16T19:09:47;12.90;99.90
5978;DHT22;3015;51.390;12.256;2022-09-16T19:12:13;13.00;99.90
5978;DHT22;3015;51.390;12.256;2022-09-16T19:14:39;13.00;99.90
5978;DHT22;3015;51.390;12.256;2022-09-16T19:17:05;13.00;99.90
5978;DHT22;3015;51.390;12.256;2022-09-16T19:19:31;12.90;99.90
5978;DHT22;3015;51.390;12.256;2022-09-16T19:21:58;12.90;99.90
5978;DHT22;3015;51.390;12.256;2022-09-16T19:24:24;12.90;99.90
5978;DHT22;3015;51.390;12.256;2022-09-16T19:26:52;12.90;99.90
5978;DHT22;3015;51.390;12.256;2022-09-16T19:29:19;13.00;99.90
5978;DHT22;3015;51.390;12.256;2022-09-16T19:31:47;13.10;99.90